Time;durP1;ratioP1;P1;durP2;ratioP2;P2;SDS_P1;SDS_P2;PMS_P1;PMS_P2;Temp;Humidity;BMP_temperature;BMP_pressure;BME280_temperature;BME280_humidity;BME280_pressure;Samples;Min_cycle;Max_cycle;Signal;HPM_P1;HPM_P2
2024/04/06 00:01:48;;;;;;;0.05;0.05;;;19.20;52.70;;;;;;5067799;28;20206;-47
2024/04/06 00:04:19;;;;;;;0.08;0.08;;;19.20;52.60;;;;;;5088044;28;20721;-48
2024/04/06 00:06:50;;;;;;;0.00;0.00;;;19.20;52.60;;;;;;5088206;28;20198;-46
2024/04/06 00:09:19;;;;;;;0.10;0.10;;;19.10;52.50;;;;;;5048379;28;20695;-45
2024/04/06 00:11:50;;;;;;;0.00;0.00;;;19.20;52.60;;;;;;5048230;28;20592;-48
2024/04/06 00:14:19;;;;;;;0.00;0.00;;;19.20;52.50;;;;;;5047047;28;20203;-48
2024/04/06 00:16:50;;;;;;;0.10;0.10;;;19.20;52.50;;;;;;5047510;28;20195;-48
2024/04/06 00:19:21;;;;;;;0.10;0.10;;;19.20;52.40;;;;;;5047337;28;20234;-45
2024/04/06 00:21:52;;;;;;;0.00;0.00;;;19.30;52.50;;;;;;5053354;28;20217;-45
2024/04/06 00:24:21;;;;;;;0.10;0.10;;;19.30;52.40;;;;;;5067745;28;20191;-48
2024/04/06 00:26:51;;;;;;;0.00;0.00;;;19.30;52.50;;;;;;5068408;28;20230;-46
2024/04/06 00:29:20;;;;;;;0.00;0.00;;;19.30;52.40;;;;;;5067544;28;20273;-49
2024/04/06 00:31:51;;;;;;;0.00;0.00;;;19.40;52.40;;;;;;5067739;28;20207;-46
2024/04/06 00:34:22;;;;;;;0.10;0.10;;;19.40;52.30;;;;;;5071822;28;20426;-45
2024/04/06 00:36:54;;;;;;;0.08;0.08;;;19.30;52.30;;;;;;5066393;28;20286;-47
2024/04/06 00:39:24;;;;;;;0.10;0.10;;;19.40;52.20;;;;;;5069914;28;20636;-45
2024/04/06 00:41:54;;;;;;;0.00;0.00;;;19.40;52.20;;;;;;5071675;28;20282;-46
2024/04/06 00:44:24;;;;;;;0.08;0.08;;;19.40;52.20;;;;;;5071437;28;20272;-47
2024/04/06 00:46:55;;;;;;;0.00;0.00;;;19.50;52.20;;;;;;5071435;28;20206;-47
2024/04/06 00:49:26;;;;;;;0.00;0.00;;;19.40;52.20;;;;;;5051874;28;20718;-46
2024/04/06 00:51:57;;;;;;;0.08;0.08;;;19.50;52.20;;;;;;5054366;28;20205;-46
2024/04/06 00:54:27;;;;;;;0.05;0.05;;;19.50;52.20;;;;;;5070989;28;20194;-46
2024/04/06 00:56:58;;;;;;;0.00;0.00;;;19.50;52.10;;;;;;5072019;28;20205;-48
2024/04/06 00:59:27;;;;;;;0.10;0.10;;;19.50;52.10;;;;;;5070355;28;20226;-47
2024/04/06 01:01:58;;;;;;;0.10;0.10;;;19.50;52.10;;;;;;5072175;28;20206;-45
2024/04/06 01:04:29;;;;;;;0.08;0.08;;;19.50;52.00;;;;;;5090993;28;20726;-46
2024/04/06 01:07:00;;;;;;;0.10;0.10;;;19.60;52.00;;;;;;5091632;28;20198;-48
2024/04/06 01:09:29;;;;;;;0.10;0.10;;;19.60;52.00;;;;;;5091858;28;20202;-50
2024/04/06 01:11:59;;;;;;;0.00;0.00;;;19.60;52.00;;;;;;5092033;28;20779;-49
2024/04/06 01:14:29;;;;;;;0.10;0.10;;;19.60;51.90;;;;;;5080297;28;20202;-47
2024/04/06 01:17:00;;;;;;;0.10;0.10;;;19.70;51.90;;;;;;5070622;28;20205;-48
2024/04/06 01:19:31;;;;;;;0.10;0.10;;;19.70;52.00;;;;;;5071277;28;20650;-49
2024/04/06 01:22:02;;;;;;;0.10;0.10;;;19.70;51.90;;;;;;5066969;28;20278;-49
2024/04/06 01:25:20;;;;;;;0.10;0.10;;;19.70;51.80;;;;;;5064974;28;20195;-51
2024/04/06 01:27:53;;;;;;;0.00;0.00;;;19.70;51.80;;;;;;5070973;28;20215;-52
2024/04/06 01:30:22;;;;;;;0.00;0.00;;;19.70;51.80;;;;;;5072001;28;20646;-47
2024/04/06 01:32:53;;;;;;;0.10;0.10;;;19.70;51.80;;;;;;5073377;28;20210;-49
2024/04/06 01:35:23;;;;;;;0.00;0.00;;;19.70;51.80;;;;;;5070062;28;20195;-49
2024/04/06 01:37:53;;;;;;;0.00;0.00;;;19.80;51.90;;;;;;5070081;28;20746;-50
2024/04/06 01:40:22;;;;;;;0.10;0.10;;;19.80;51.80;;;;;;5070073;28;20288;-50
2024/04/06 01:42:55;;;;;;;0.03;0.03;;;19.80;51.70;;;;;;5070485;28;20203;-51
2024/04/06 01:45:24;;;;;;;0.10;0.10;;;19.80;51.70;;;;;;5070818;28;20195;-50
2024/04/06 01:47:55;;;;;;;0.10;0.10;;;19.80;51.60;;;;;;5068861;28;20590;-46
2024/04/06 01:50:24;;;;;;;0.10;0.10;;;19.80;51.60;;;;;;5068793;28;20562;-46
2024/04/06 01:52:54;;;;;;;0.10;0.10;;;19.90;51.60;;;;;;5069797;28;20335;-46
2024/04/06 01:55:24;;;;;;;0.10;0.10;;;19.90;51.60;;;;;;5071122;28;20205;-49
2024/04/06 01:57:56;;;;;;;0.10;0.10;;;19.90;51.60;;;;;;5069410;28;20686;-47
2024/04/06 02:00:25;;;;;;;0.08;0.08;;;19.90;51.60;;;;;;5070493;28;20233;-46
2024/04/06 02:02:56;;;;;;;0.10;0.10;;;20.00;51.70;;;;;;5076143;28;20194;-47
2024/04/06 02:05:25;;;;;;;0.00;0.00;;;20.00;51.60;;;;;;5090261;28;20206;-46
2024/04/06 02:07:56;;;;;;;0.00;0.00;;;20.00;51.50;;;;;;5090593;28;20693;-47
2024/04/06 02:10:25;;;;;;;0.10;0.10;;;20.00;51.50;;;;;;5077464;28;20191;-48
2024/04/06 02:12:57;;;;;;;0.10;0.10;;;20.00;51.50;;;;;;5066757;28;20195;-47
2024/04/06 02:15:26;;;;;;;0.03;0.03;;;20.10;51.50;;;;;;5069323;28;20207;-48
2024/04/06 02:17:58;;;;;;;0.08;0.08;;;20.00;51.50;;;;;;5069911;28;20229;-46
2024/04/06 02:20:27;;;;;;;0.10;0.10;;;20.10;51.50;;;;;;5069694;28;20234;-47
2024/04/06 02:22:57;;;;;;;0.10;0.10;;;20.10;51.50;;;;;;5069959;28;20205;-47
2024/04/06 02:25:27;;;;;;;0.10;0.10;;;20.10;51.40;;;;;;5068527;28;20195;-48
2024/04/06 02:27:59;;;;;;;0.03;0.03;;;20.10;51.40;;;;;;5068848;28;20301;-48
2024/04/06 02:30:30;;;;;;;0.10;0.10;;;20.10;51.40;;;;;;5068815;28;20209;-45
2024/04/06 02:32:59;;;;;;;0.00;0.00;;;20.20;51.70;;;;;;5078286;28;20210;-47
2024/04/06 02:35:30;;;;;;;0.00;0.00;;;20.20;52.00;;;;;;5089646;28;20286;-47
2024/04/06 02:37:59;;;;;;;0.10;0.10;;;20.20;52.00;;;;;;5068822;28;20301;-47
2024/04/06 02:40:30;;;;;;;0.10;0.10;;;20.20;51.90;;;;;;5068814;28;20234;-45
2024/04/06 02:43:01;;;;;;;0.00;0.00;;;20.30;52.00;;;;;;5070176;28;20199;-49
2024/04/06 02:45:32;;;;;;;0.10;0.10;;;20.30;51.90;;;;;;5069138;28;20238;-49
2024/04/06 02:48:01;;;;;;;0.00;0.00;;;20.30;51.90;;;;;;5069291;28;20525;-47
2024/04/06 02:50:32;;;;;;;0.10;0.10;;;20.40;52.00;;;;;;5068831;28;20468;-49
2024/04/06 02:53:01;;;;;;;0.00;0.00;;;20.40;51.90;;;;;;5069507;28;20288;-50
2024/04/06 02:55:31;;;;;;;0.00;0.00;;;20.40;51.90;;;;;;5068598;28;20206;-48
2024/04/06 02:58:02;;;;;;;0.00;0.00;;;20.50;51.90;;;;;;5068501;28;20218;-48
2024/04/06 03:00:33;;;;;;;0.00;0.00;;;20.50;51.90;;;;;;5067976;28;20272;-46
2024/04/06 03:03:02;;;;;;;0.00;0.00;;;20.50;51.90;;;;;;5064915;28;20202;-46
2024/04/06 03:05:33;;;;;;;0.10;0.10;;;20.60;52.00;;;;;;5068962;28;20469;-47
2024/04/06 03:08:02;;;;;;;0.10;0.10;;;20.60;51.90;;;;;;5068806;28;20705;-47
2024/04/06 03:10:33;;;;;;;0.05;0.05;;;20.60;51.90;;;;;;5068520;28;20655;-44
2024/04/06 03:13:04;;;;;;;0.00;0.00;;;20.70;52.00;;;;;;5069094;28;20205;-45
2024/04/06 03:15:35;;;;;;;0.10;0.10;;;20.70;51.90;;;;;;5069103;28;20678;-45
2024/04/06 03:18:05;;;;;;;0.00;0.00;;;20.80;52.00;;;;;;5067525;28;20288;-47
2024/04/06 03:20:36;;;;;;;0.10;0.10;;;20.80;51.90;;;;;;5068570;28;20501;-45
2024/04/06 03:23:06;;;;;;;0.00;0.00;;;20.90;51.90;;;;;;5068417;28;20202;-46
2024/04/06 03:25:38;;;;;;;0.10;0.10;;;20.90;51.70;;;;;;5068547;28;20195;-49
2024/04/06 03:28:09;;;;;;;0.03;0.03;;;20.90;51.50;;;;;;5068843;28;20229;-46
2024/04/06 03:30:40;;;;;;;0.10;0.10;;;21.00;51.50;;;;;;5067483;28;20222;-48
2024/04/06 03:33:09;;;;;;;0.05;0.05;;;21.00;51.40;;;;;;5078598;28;20206;-45
2024/04/06 03:35:39;;;;;;;0.00;0.00;;;21.00;51.30;;;;;;5088610;28;20607;-46
2024/04/06 03:38:10;;;;;;;0.00;0.00;;;21.10;51.40;;;;;;5088788;28;20224;-47
2024/04/06 03:40:41;;;;;;;0.05;0.05;;;21.10;51.40;;;;;;5087480;28;20626;-46
2024/04/06 03:43:12;;;;;;;0.00;0.00;;;21.10;51.20;;;;;;5080384;28;20570;-45
2024/04/06 03:45:43;;;;;;;0.00;0.00;;;21.20;51.10;;;;;;5068796;28;20610;-47
2024/04/06 03:48:13;;;;;;;0.00;0.00;;;21.20;51.00;;;;;;5067731;28;20226;-50
2024/04/06 03:50:43;;;;;;;0.00;0.00;;;21.20;51.00;;;;;;5068802;28;20685;-46
2024/04/06 03:53:13;;;;;;;0.10;0.10;;;21.30;51.50;;;;;;5068564;28;20562;-50
2024/04/06 03:55:43;;;;;;;0.00;0.00;;;21.30;50.90;;;;;;5079491;22;20218;-46
2024/04/06 03:58:14;;;;;;;0.10;0.10;;;21.30;50.90;;;;;;5047806;28;20224;-47
2024/04/06 04:00:45;;;;;;;0.00;0.00;;;21.40;50.70;;;;;;5048248;28;20231;-46
2024/04/06 04:03:14;;;;;;;0.00;0.00;;;21.40;50.70;;;;;;5058821;28;20212;-48
2024/04/06 04:05:45;;;;;;;0.10;0.10;;;21.50;50.80;;;;;;5066301;28;20304;-47
2024/04/06 04:08:14;;;;;;;0.00;0.00;;;21.50;50.70;;;;;;5067995;28;20244;-49
2024/04/06 04:10:45;;;;;;;0.00;0.00;;;21.50;50.50;;;;;;5065923;28;20290;-48
2024/04/06 04:13:18;;;;;;;0.00;0.00;;;21.60;50.50;;;;;;5066395;28;20194;-47
2024/04/06 04:15:48;;;;;;;0.00;0.00;;;21.60;50.30;;;;;;5068103;28;20299;-46
2024/04/06 04:18:18;;;;;;;0.10;0.10;;;21.60;50.20;;;;;;5067456;28;20214;-47
2024/04/06 04:20:49;;;;;;;0.10;0.10;;;21.70;50.10;;;;;;5068075;28;20226;-48
2024/04/06 04:23:18;;;;;;;0.00;0.00;;;21.70;50.10;;;;;;5067819;28;20271;-47
2024/04/06 04:25:49;;;;;;;0.10;0.10;;;21.70;50.00;;;;;;5067576;28;20655;-47
2024/04/06 04:28:20;;;;;;;0.00;0.00;;;21.70;50.00;;;;;;5067397;28;20215;-48
2024/04/06 04:30:50;;;;;;;0.10;0.10;;;21.70;49.90;;;;;;5067038;28;20199;-47
2024/04/06 04:33:19;;;;;;;0.00;0.00;;;21.80;49.80;;;;;;5067958;28;20206;-48
2024/04/06 04:35:50;;;;;;;0.10;0.10;;;21.80;49.70;;;;;;5068266;28;20202;-48
2024/04/06 04:38:19;;;;;;;0.00;0.00;;;21.80;49.60;;;;;;5067051;28;20219;-48
2024/04/06 04:40:50;;;;;;;0.00;0.00;;;21.90;49.40;;;;;;5067996;28;20230;-47
2024/04/06 04:43:21;;;;;;;0.00;0.00;;;21.90;49.40;;;;;;5068046;28;20203;-49
2024/04/06 04:45:52;;;;;;;0.10;0.10;;;21.90;49.40;;;;;;5067504;28;20672;-48
2024/04/06 04:48:21;;;;;;;0.10;0.10;;;22.00;49.30;;;;;;5067542;28;20225;-48
2024/04/06 04:50:52;;;;;;;0.10;0.10;;;22.00;49.20;;;;;;5067302;28;20202;-49
2024/04/06 04:53:21;;;;;;;0.00;0.00;;;22.00;49.20;;;;;;5067396;28;20207;-50
2024/04/06 04:55:51;;;;;;;0.00;0.00;;;22.00;49.00;;;;;;5067282;28;20202;-48
2024/04/06 04:58:22;;;;;;;0.10;0.10;;;22.10;49.10;;;;;;5068009;28;20226;-47
2024/04/06 05:00:53;;;;;;;0.10;0.10;;;22.10;49.00;;;;;;5066763;28;20227;-47
2024/04/06 05:03:22;;;;;;;0.08;0.08;;;22.10;49.10;;;;;;5066964;28;20719;-47
2024/04/06 05:05:53;;;;;;;0.08;0.08;;;22.10;48.80;;;;;;5067632;28;20198;-47
2024/04/06 05:08:22;;;;;;;0.00;0.00;;;22.10;48.90;;;;;;5066937;28;20311;-48
2024/04/06 05:10:53;;;;;;;0.05;0.05;;;22.10;48.90;;;;;;5065720;28;20199;-49
2024/04/06 05:13:24;;;;;;;0.00;0.00;;;22.20;49.00;;;;;;5071464;28;20198;-47
2024/04/06 05:15:58;;;;;;;0.00;0.00;;;22.20;48.90;;;;;;5071278;28;20233;-46
2024/04/06 05:18:28;;;;;;;0.00;0.00;;;22.20;49.00;;;;;;5070874;28;20218;-47
2024/04/06 05:21:00;;;;;;;0.10;0.10;;;22.20;49.10;;;;;;5071399;28;20227;-46
2024/04/06 05:23:30;;;;;;;0.00;0.00;;;22.20;49.00;;;;;;5071276;28;20253;-46
2024/04/06 05:26:00;;;;;;;0.00;0.00;;;22.20;48.90;;;;;;5074831;28;20199;-46
2024/04/06 05:28:31;;;;;;;0.00;0.00;;;22.20;48.90;;;;;;5074817;28;20215;-48
2024/04/06 05:31:02;;;;;;;0.10;0.10;;;22.20;48.90;;;;;;5074794;28;20202;-47
2024/04/06 05:33:31;;;;;;;0.03;0.03;;;22.20;48.90;;;;;;5073093;28;20434;-46
2024/04/06 05:36:04;;;;;;;0.00;0.00;;;22.20;49.00;;;;;;5073493;28;20194;-46
2024/04/06 05:38:33;;;;;;;0.00;0.00;;;22.20;48.90;;;;;;5074122;28;20215;-46
2024/04/06 05:41:04;;;;;;;0.00;0.00;;;22.20;49.00;;;;;;5074662;28;20229;-45
2024/04/06 05:43:35;;;;;;;0.00;0.00;;;22.30;49.00;;;;;;5073984;28;20195;-46
2024/04/06 05:46:06;;;;;;;0.00;0.00;;;22.30;49.00;;;;;;5073831;28;20194;-46
2024/04/06 05:48:37;;;;;;;0.10;0.10;;;22.20;48.70;;;;;;5073707;28;20223;-47
2024/04/06 05:51:08;;;;;;;0.00;0.00;;;22.20;48.60;;;;;;5074269;28;20198;-47
2024/04/06 05:53:40;;;;;;;0.00;0.00;;;22.20;48.40;;;;;;5074529;28;20201;-47
2024/04/06 05:56:11;;;;;;;0.00;0.00;;;22.20;48.40;;;;;;5074367;28;20203;-46
2024/04/06 05:58:42;;;;;;;0.00;0.00;;;22.20;48.40;;;;;;5074180;28;20234;-47
2024/04/06 06:01:13;;;;;;;0.10;0.10;;;22.20;48.40;;;;;;5073734;28;20226;-47
2024/04/06 06:03:42;;;;;;;0.00;0.00;;;22.20;48.40;;;;;;5073441;28;20199;-48
2024/04/06 06:06:13;;;;;;;0.00;0.00;;;22.20;48.60;;;;;;5073685;28;20408;-47
2024/04/06 06:08:43;;;;;;;0.10;0.10;;;22.10;48.60;;;;;;5073476;28;20214;-46
2024/04/06 06:11:13;;;;;;;0.10;0.10;;;22.20;48.80;;;;;;5073836;28;20199;-46
2024/04/06 06:13:44;;;;;;;0.00;0.00;;;22.20;48.90;;;;;;5073746;28;20721;-47
2024/04/06 06:16:15;;;;;;;0.00;0.00;;;22.20;48.90;;;;;;5074072;28;20646;-47
2024/04/06 06:18:44;;;;;;;0.00;0.00;;;22.20;48.90;;;;;;5073594;28;20219;-48
2024/04/06 06:21:15;;;;;;;0.10;0.10;;;22.10;48.90;;;;;;5073278;28;20275;-47
2024/04/06 06:23:44;;;;;;;0.08;0.08;;;22.20;49.00;;;;;;5073782;28;20567;-47
2024/04/06 06:26:15;;;;;;;0.08;0.08;;;22.10;48.80;;;;;;5073378;28;20239;-46
2024/04/06 06:28:46;;;;;;;0.10;0.10;;;22.10;48.70;;;;;;5073561;28;20717;-47
2024/04/06 06:31:16;;;;;;;0.00;0.00;;;22.10;48.60;;;;;;5073643;28;20199;-46
2024/04/06 06:33:45;;;;;;;0.00;0.00;;;22.10;48.50;;;;;;5072554;28;20210;-48
2024/04/06 06:36:17;;;;;;;0.00;0.00;;;22.10;48.50;;;;;;5072841;28;20195;-46
2024/04/06 06:38:48;;;;;;;0.00;0.00;;;22.10;48.50;;;;;;5073545;28;20324;-47
2024/04/06 06:41:19;;;;;;;0.05;0.05;;;22.10;48.50;;;;;;5073198;28;20288;-47
2024/04/06 06:43:50;;;;;;;0.10;0.10;;;22.10;48.50;;;;;;5072903;28;20197;-46
2024/04/06 06:46:20;;;;;;;0.10;0.10;;;22.00;48.50;;;;;;5072857;28;20206;-47
2024/04/06 06:48:49;;;;;;;0.00;0.00;;;22.00;48.40;;;;;;5072813;28;20691;-45
2024/04/06 06:51:20;;;;;;;0.10;0.10;;;22.00;48.50;;;;;;5072616;28;20268;-46
2024/04/06 06:53:49;;;;;;;0.00;0.00;;;22.00;48.50;;;;;;5073295;28;20654;-48
2024/04/06 06:56:20;;;;;;;0.10;0.10;;;22.00;48.60;;;;;;5073647;28;20206;-47
2024/04/06 06:58:51;;;;;;;0.00;0.00;;;22.00;48.60;;;;;;5072498;28;20249;-48
2024/04/06 07:01:22;;;;;;;0.00;0.00;;;21.90;48.60;;;;;;5072961;28;20313;-47
2024/04/06 07:03:51;;;;;;;0.00;0.00;;;21.90;48.60;;;;;;5072720;28;20199;-48
2024/04/06 07:06:21;;;;;;;0.00;0.00;;;21.90;48.60;;;;;;5073133;28;20194;-47
2024/04/06 07:08:51;;;;;;;0.00;0.00;;;21.90;48.60;;;;;;5072734;28;20214;-45
2024/04/06 07:11:21;;;;;;;0.10;0.10;;;21.90;48.60;;;;;;5071156;28;20649;-46
2024/04/06 07:13:52;;;;;;;0.10;0.10;;;21.90;48.50;;;;;;5071540;28;20203;-46
2024/04/06 07:16:25;;;;;;;0.00;0.00;;;21.90;48.50;;;;;;5072495;28;20195;-46
2024/04/06 07:18:54;;;;;;;0.00;0.00;;;21.80;48.40;;;;;;5072268;28;20721;-46
2024/04/06 07:21:26;;;;;;;0.10;0.10;;;21.80;48.40;;;;;;5072145;28;20219;-47
2024/04/06 07:23:56;;;;;;;0.10;0.10;;;21.80;48.40;;;;;;5072091;28;20195;-47
2024/04/06 07:26:26;;;;;;;0.05;0.05;;;21.80;48.40;;;;;;5072238;28;20602;-46
2024/04/06 07:28:57;;;;;;;0.10;0.10;;;21.70;48.40;;;;;;5072200;28;20219;-47
2024/04/06 07:31:28;;;;;;;0.00;0.00;;;21.70;48.40;;;;;;5072327;28;20203;-47
2024/04/06 07:33:57;;;;;;;0.00;0.00;;;21.70;48.40;;;;;;5071960;28;20202;-47
2024/04/06 07:36:28;;;;;;;0.00;0.00;;;21.70;48.50;;;;;;5071848;28;20643;-47
2024/04/06 07:38:57;;;;;;;0.10;0.10;;;21.60;48.40;;;;;;5071796;28;20211;-46
2024/04/06 07:41:27;;;;;;;0.10;0.10;;;21.60;48.40;;;;;;5072084;28;20226;-47
2024/04/06 07:43:58;;;;;;;0.00;0.00;;;21.60;48.40;;;;;;5072027;28;20213;-47
2024/04/06 07:46:29;;;;;;;0.08;0.08;;;21.60;48.50;;;;;;5072046;28;20201;-46
2024/04/06 07:48:58;;;;;;;0.00;0.00;;;21.60;48.50;;;;;;5070931;28;20625;-47
2024/04/06 07:51:29;;;;;;;0.00;0.00;;;21.60;48.50;;;;;;5071850;28;20226;-47
2024/04/06 07:53:58;;;;;;;0.00;0.00;;;21.60;48.50;;;;;;5071758;28;20256;-47
2024/04/06 07:56:28;;;;;;;0.10;0.10;;;21.50;48.40;;;;;;5072586;28;20218;-47
2024/04/06 07:59:01;;;;;;;0.00;0.00;;;21.50;48.50;;;;;;5071770;28;20215;-47
2024/04/06 08:01:32;;;;;;;0.03;0.03;;;21.50;48.40;;;;;;5071580;28;20226;-48
2024/04/06 08:04:01;;;;;;;0.10;0.10;;;21.40;48.40;;;;;;5071478;28;20290;-47
2024/04/06 08:06:31;;;;;;;0.10;0.10;;;21.40;48.50;;;;;;5071671;28;20655;-47
2024/04/06 08:09:01;;;;;;;0.10;0.10;;;21.40;48.50;;;;;;5071809;28;20264;-47
2024/04/06 08:11:31;;;;;;;0.10;0.10;;;21.40;48.50;;;;;;5071322;28;20647;-47
2024/04/06 08:14:02;;;;;;;0.00;0.00;;;21.30;48.50;;;;;;5070735;28;20195;-47
2024/04/06 08:16:34;;;;;;;0.00;0.00;;;21.30;48.50;;;;;;5071445;28;20282;-48
2024/04/06 08:19:04;;;;;;;0.00;0.00;;;21.30;48.40;;;;;;5071514;28;20261;-46
2024/04/06 08:21:34;;;;;;;0.10;0.10;;;21.30;48.50;;;;;;5071422;28;20222;-46
2024/04/06 08:24:04;;;;;;;0.00;0.00;;;21.20;48.50;;;;;;5071559;28;20190;-48
2024/04/06 08:26:34;;;;;;;0.00;0.00;;;21.20;48.50;;;;;;5071007;28;20669;-48
2024/04/06 08:29:05;;;;;;;0.00;0.00;;;21.20;48.60;;;;;;5071467;28;20297;-48
2024/04/06 08:31:36;;;;;;;0.08;0.08;;;21.20;48.60;;;;;;5069038;28;20191;-48
2024/04/06 08:34:06;;;;;;;0.00;0.00;;;21.20;48.60;;;;;;5069531;28;20198;-49
2024/04/06 08:36:37;;;;;;;0.10;0.10;;;21.20;48.60;;;;;;5071431;28;20199;-52
2024/04/06 08:39:06;;;;;;;0.08;0.08;;;21.10;48.50;;;;;;5071265;28;20219;-48
2024/04/06 08:41:37;;;;;;;0.00;0.00;;;21.10;48.60;;;;;;5068416;28;20281;-49
2024/04/06 08:44:12;;;;;;;0.10;0.10;;;21.10;48.60;;;;;;5065886;28;20194;-51
2024/04/06 08:46:44;;;;;;;0.10;0.10;;;21.10;48.60;;;;;;5068212;28;20209;-49
2024/04/06 08:49:15;;;;;;;0.10;0.10;;;21.00;48.50;;;;;;5070219;28;20206;-52
2024/04/06 08:51:50;;;;;;;0.00;0.00;;;21.00;48.40;;;;;;5070875;28;20652;-50
2024/04/06 08:54:19;;;;;;;0.03;0.03;;;21.00;48.40;;;;;;5066636;28;20205;-50
2024/04/06 08:56:50;;;;;;;0.00;0.00;;;21.00;48.40;;;;;;5064832;28;20217;-48
2024/04/06 08:59:21;;;;;;;0.05;0.05;;;21.00;48.30;;;;;;5068394;28;20313;-48
2024/04/06 09:01:51;;;;;;;0.10;0.10;;;20.90;48.30;;;;;;5070849;28;20313;-49
2024/04/06 09:04:21;;;;;;;0.10;0.10;;;20.90;48.30;;;;;;5056710;28;20256;-49
2024/04/06 09:06:52;;;;;;;0.00;0.00;;;20.90;48.40;;;;;;5070263;28;20569;-49
2024/04/06 09:09:21;;;;;;;0.03;0.03;;;20.80;48.40;;;;;;5071152;28;20268;-46
2024/04/06 09:11:52;;;;;;;0.00;0.00;;;20.80;48.50;;;;;;5070379;28;20252;-48
2024/04/06 09:14:23;;;;;;;0.08;0.08;;;20.80;48.50;;;;;;5071068;28;20572;-48
2024/04/06 09:16:57;;;;;;;0.10;0.10;;;20.70;48.50;;;;;;5070905;28;20194;-50
2024/04/06 09:19:27;;;;;;;0.00;0.00;;;20.70;48.50;;;;;;5070702;28;20232;-48
2024/04/06 09:21:59;;;;;;;0.10;0.10;;;20.70;48.50;;;;;;5071121;28;20227;-46
2024/04/06 09:24:29;;;;;;;0.00;0.00;;;20.70;48.50;;;;;;5071001;28;20339;-47
2024/04/06 09:27:08;;;;;;;0.00;0.00;;;20.70;48.60;;;;;;5070606;28;20199;-47
2024/04/06 09:29:46;;;;;;;0.00;0.00;;;20.60;48.50;;;;;;5070738;28;20328;-48
2024/04/06 09:32:18;;;;;;;0.10;0.10;;;20.60;48.50;;;;;;5069991;28;20202;-47
2024/04/06 09:34:51;;;;;;;0.00;0.00;;;20.60;48.60;;;;;;5069287;28;20199;-50
2024/04/06 09:37:26;;;;;;;0.00;0.00;;;20.50;48.50;;;;;;5070058;28;20222;-48
2024/04/06 09:39:57;;;;;;;0.00;0.00;;;20.50;48.50;;;;;;5070415;28;20195;-48
2024/04/06 09:42:28;;;;;;;0.00;0.00;;;20.50;48.50;;;;;;5069657;28;20316;-47
2024/04/06 09:45:00;;;;;;;0.00;0.00;;;20.50;49.20;;;;;;5070250;28;20195;-46
2024/04/06 09:47:31;;;;;;;0.00;0.00;;;20.50;48.50;;;;;;5069321;28;20218;-48
2024/04/06 09:50:00;;;;;;;0.00;0.00;;;20.50;48.50;;;;;;5070532;28;20561;-48
2024/04/06 09:52:31;;;;;;;0.10;0.10;;;20.40;48.50;;;;;;5070602;28;20742;-47
2024/04/06 09:55:01;;;;;;;0.05;0.05;;;20.40;48.50;;;;;;5069407;28;20289;-49
2024/04/06 09:57:33;;;;;;;0.00;0.00;;;20.40;48.60;;;;;;5069893;28;20226;-46
2024/04/06 10:00:07;;;;;;;0.10;0.10;;;20.40;48.60;;;;;;5069803;28;20199;-49
2024/04/06 10:02:38;;;;;;;0.10;0.10;;;20.30;48.60;;;;;;5070019;28;20230;-48
2024/04/06 10:05:07;;;;;;;0.00;0.00;;;20.30;48.60;;;;;;5069925;28;20210;-47
2024/04/06 10:07:38;;;;;;;0.00;0.00;;;20.30;48.60;;;;;;5070489;28;20292;-47
2024/04/06 10:10:08;;;;;;;0.10;0.10;;;20.30;48.60;;;;;;5068059;28;20199;-49
2024/04/06 10:12:45;;;;;;;0.00;0.00;;;20.20;48.60;;;;;;5069726;28;20675;-47
2024/04/06 10:15:18;;;;;;;0.10;0.10;;;20.20;48.70;;;;;;5049318;28;20199;-47
2024/04/06 10:17:52;;;;;;;0.00;0.00;;;20.20;48.60;;;;;;5049467;28;20216;-47
2024/04/06 10:20:23;;;;;;;0.10;0.10;;;20.20;48.60;;;;;;5049490;28;20662;-47
2024/04/06 10:22:54;;;;;;;0.00;0.00;;;20.20;48.60;;;;;;5050283;28;20284;-47
2024/04/06 10:25:34;;;;;;;0.00;0.00;;;20.20;48.60;;;;;;5051569;28;20202;-49
2024/04/06 10:28:06;;;;;;;0.00;0.00;;;20.10;48.50;;;;;;5068725;28;20546;-46
2024/04/06 10:30:38;;;;;;;0.10;0.10;;;20.10;48.50;;;;;;5069717;28;20198;-47
2024/04/06 10:33:09;;;;;;;0.00;0.00;;;20.10;48.50;;;;;;5069131;28;20199;-47
2024/04/06 10:35:38;;;;;;;0.05;0.05;;;20.10;48.60;;;;;;5069042;28;20210;-47
2024/04/06 10:38:10;;;;;;;0.10;0.10;;;20.10;48.60;;;;;;5069400;28;20223;-48
2024/04/06 10:40:39;;;;;;;0.10;0.10;;;20.10;48.60;;;;;;5068733;28;20202;-47
2024/04/06 10:43:09;;;;;;;0.10;0.10;;;20.00;48.60;;;;;;5068878;28;20191;-48
2024/04/06 10:45:40;;;;;;;0.05;0.05;;;20.00;48.70;;;;;;5069275;28;20248;-46
2024/04/06 10:48:11;;;;;;;0.10;0.10;;;20.00;48.70;;;;;;5068188;28;20603;-48
2024/04/06 10:50:41;;;;;;;0.00;0.00;;;19.90;48.70;;;;;;5066940;28;20720;-47
2024/04/06 10:53:12;;;;;;;0.00;0.00;;;19.90;48.70;;;;;;5069406;28;20213;-48
2024/04/06 10:55:41;;;;;;;0.10;0.10;;;19.90;48.70;;;;;;5068058;28;20445;-48
2024/04/06 10:58:12;;;;;;;0.10;0.10;;;19.90;48.70;;;;;;5068882;28;20280;-50
2024/04/06 11:00:43;;;;;;;0.00;0.00;;;19.80;48.70;;;;;;5068083;28;20576;-47
2024/04/06 11:03:14;;;;;;;0.00;0.00;;;19.80;48.70;;;;;;5069090;28;20203;-49
2024/04/06 11:05:44;;;;;;;0.10;0.10;;;19.80;48.70;;;;;;5068937;28;20692;-47
2024/04/06 11:08:15;;;;;;;0.03;0.03;;;19.80;48.70;;;;;;5069686;28;20614;-47
2024/04/06 11:10:45;;;;;;;0.10;0.10;;;19.80;48.80;;;;;;5069796;28;20195;-48
2024/04/06 11:13:15;;;;;;;0.10;0.10;;;19.80;48.70;;;;;;5070712;28;20179;-49
2024/04/06 11:15:47;;;;;;;0.10;0.10;;;19.70;48.70;;;;;;5071578;28;20768;-46
2024/04/06 11:18:18;;;;;;;0.20;0.20;;;19.80;48.80;;;;;;5071599;28;20210;-46
2024/04/06 11:20:48;;;;;;;0.10;0.10;;;19.70;48.70;;;;;;5072358;28;20273;-48
2024/04/06 11:23:23;;;;;;;0.08;0.08;;;19.70;48.70;;;;;;5071744;28;20550;-46
2024/04/06 11:25:52;;;;;;;0.00;0.00;;;19.70;48.70;;;;;;5072085;28;20190;-47
2024/04/06 11:28:24;;;;;;;0.08;0.08;;;19.60;48.60;;;;;;5068823;28;20206;-46
2024/04/06 11:30:57;;;;;;;0.08;0.08;;;19.60;48.70;;;;;;5071336;28;20195;-46
2024/04/06 11:33:28;;;;;;;0.00;0.00;;;19.60;48.70;;;;;;5069318;28;20235;-46
2024/04/06 11:35:57;;;;;;;0.10;0.10;;;19.60;48.70;;;;;;5071358;28;20191;-47
2024/04/06 11:38:28;;;;;;;0.00;0.00;;;19.60;48.70;;;;;;5071496;28;20294;-47
2024/04/06 11:40:58;;;;;;;0.03;0.03;;;19.60;48.80;;;;;;5071485;28;20195;-49
2024/04/06 11:43:29;;;;;;;0.10;0.10;;;19.50;48.70;;;;;;5072005;28;20187;-49
2024/04/06 11:46:00;;;;;;;0.00;0.00;;;19.50;48.70;;;;;;5071509;28;20244;-50
2024/04/06 11:48:31;;;;;;;0.00;0.00;;;19.50;48.70;;;;;;5071082;28;20218;-48
2024/04/06 11:51:00;;;;;;;0.03;0.03;;;19.50;48.80;;;;;;5068430;28;20670;-48
2024/04/06 11:53:34;;;;;;;0.00;0.00;;;19.40;48.70;;;;;;5070891;28;20293;-48
2024/04/06 11:56:03;;;;;;;0.00;0.00;;;19.40;48.70;;;;;;5069959;28;20190;-47
2024/04/06 11:58:35;;;;;;;0.00;0.00;;;19.40;48.80;;;;;;5070491;28;20746;-49
2024/04/06 12:01:06;;;;;;;0.00;0.00;;;19.40;48.80;;;;;;5069012;28;20190;-48
2024/04/06 12:03:37;;;;;;;0.00;0.00;;;19.40;48.80;;;;;;5070807;28;20256;-47
2024/04/06 12:06:09;;;;;;;0.05;0.05;;;19.40;48.80;;;;;;5070675;28;20191;-45
2024/04/06 12:08:40;;;;;;;0.00;0.00;;;19.30;49.40;;;;;;5071171;28;20206;-46
2024/04/06 12:11:09;;;;;;;0.00;0.00;;;19.30;48.80;;;;;;5071149;28;20187;-48
2024/04/06 12:13:40;;;;;;;0.08;0.08;;;19.30;48.80;;;;;;5071150;28;20708;-46
2024/04/06 12:16:12;;;;;;;0.08;0.08;;;19.30;48.80;;;;;;5070936;28;20202;-47
2024/04/06 12:18:42;;;;;;;0.10;0.10;;;19.20;48.70;;;;;;5068246;28;20211;-49
2024/04/06 12:21:12;;;;;;;0.00;0.00;;;19.20;48.70;;;;;;5070788;28;20647;-47
2024/04/06 12:23:43;;;;;;;0.05;0.05;;;19.20;48.80;;;;;;5067949;28;20191;-45
2024/04/06 12:26:12;;;;;;;0.10;0.10;;;19.20;48.70;;;;;;5070768;28;20190;-48
2024/04/06 12:28:43;;;;;;;0.08;0.08;;;19.20;48.80;;;;;;5068018;28;20217;-47
2024/04/06 12:31:14;;;;;;;0.00;0.00;;;19.20;48.70;;;;;;5069838;28;20244;-47
2024/04/06 12:33:45;;;;;;;0.10;0.10;;;19.20;48.80;;;;;;5067463;28;20245;-46
2024/04/06 12:36:14;;;;;;;0.05;0.05;;;19.10;48.70;;;;;;5070773;28;20190;-47
2024/04/06 12:38:45;;;;;;;0.10;0.10;;;19.10;48.80;;;;;;5070605;28;20685;-47
2024/04/06 12:41:14;;;;;;;0.00;0.00;;;19.10;48.80;;;;;;5070842;28;20205;-47
2024/04/06 12:43:45;;;;;;;0.05;0.05;;;19.10;48.80;;;;;;5070739;28;20187;-46
2024/04/06 12:46:16;;;;;;;0.00;0.00;;;19.10;48.80;;;;;;5070267;28;20594;-47
2024/04/06 12:48:46;;;;;;;0.00;0.00;;;19.10;48.80;;;;;;5067900;28;20250;-46
2024/04/06 12:51:15;;;;;;;0.00;0.00;;;19.10;48.80;;;;;;5070471;28;20198;-46
2024/04/06 12:53:46;;;;;;;0.00;0.00;;;19.00;48.70;;;;;;5068090;28;20281;-46
2024/04/06 12:56:15;;;;;;;0.00;0.00;;;19.00;48.80;;;;;;5070233;28;20190;-46
2024/04/06 12:58:46;;;;;;;0.00;0.00;;;19.00;48.70;;;;;;5068494;28;20211;-48
2024/04/06 13:01:17;;;;;;;0.10;0.10;;;19.00;48.80;;;;;;5070180;28;20244;-46
2024/04/06 13:03:48;;;;;;;0.00;0.00;;;19.00;48.70;;;;;;5066248;28;20207;-47
2024/04/06 13:06:17;;;;;;;0.00;0.00;;;19.00;48.80;;;;;;5070838;28;20191;-49